Grande Prairie, Canada
Current Conditions -  °F | °C
As of 2:00 PM on Tuesday 25 Nov 2014 (Local Time) from CYQU Reporting Station
Broken Clouds Broken Clouds  
Wind Chill:   Ceiling: 6000
Heat Index: 16°   Visibility: 10mi
Dew Point: 12°   Wind: 5mph
Humidity: 86%   Direction: 150°SSE
Pressure: 30.14"   Gusts: NA
Location:  55.17°N, 118.79°W
Report Text: CYQU 252100Z 15004KT 10SM BKN060 M09/M11 A3014 RMK SC7 SLP255
Loading
Personal Weather Stations






























Interactive Weather Map New forecast layout! Learn more

10-Day Weather Forecast

Advertisements
Track Severe Weather on mobile